sensor_id;sensor_type;location;lat;lon;timestamp;temperature;humidity
51327;DHT22;37412;52.836;6.362;2024-03-23T00:53:57;6.40;99.90
51327;DHT22;37412;52.836;6.362;2024-03-23T00:56:43;6.30;99.90
51327;DHT22;37412;52.836;6.362;2024-03-23T00:59:29;6.30;99.90
51327;DHT22;37412;52.836;6.362;2024-03-23T01:02:16;6.30;99.90
51327;DHT22;37412;52.836;6.362;2024-03-23T01:05:02;6.20;99.90
51327;DHT22;37412;52.836;6.362;2024-03-23T01:07:49;6.20;99.90
51327;DHT22;37412;52.836;6.362;2024-03-23T01:10:34;6.20;99.90
51327;DHT22;37412;52.836;6.362;2024-03-23T01:13:20;6.40;99.90
51327;DHT22;37412;52.836;6.362;2024-03-23T01:16:08;6.10;99.90
51327;DHT22;37412;52.836;6.362;2024-03-23T01:18:54;6.10;99.90
51327;DHT22;37412;52.836;6.362;2024-03-23T01:21:40;6.10;99.90
51327;DHT22;37412;52.836;6.362;2024-03-23T01:24:26;6.70;99.90
51327;DHT22;37412;52.836;6.362;2024-03-23T01:27:12;6.00;99.90
51327;DHT22;37412;52.836;6.362;2024-03-23T01:29:58;6.00;99.90
51327;DHT22;37412;52.836;6.362;2024-03-23T01:32:44;6.00;99.90
51327;DHT22;37412;52.836;6.362;2024-03-23T01:35:30;6.00;99.90
51327;DHT22;37412;52.836;6.362;2024-03-23T01:38:16;5.90;99.90
51327;DHT22;37412;52.836;6.362;2024-03-23T01:41:02;5.90;99.90
51327;DHT22;37412;52.836;6.362;2024-03-23T01:43:48;5.90;99.90
51327;DHT22;37412;52.836;6.362;2024-03-23T01:46:35;5.80;99.90
51327;DHT22;37412;52.836;6.362;2024-03-23T01:49:22;5.80;99.90
51327;DHT22;37412;52.836;6.362;2024-03-23T01:52:08;5.90;99.90
51327;DHT22;37412;52.836;6.362;2024-03-23T01:54:54;5.80;99.90
51327;DHT22;37412;52.836;6.362;2024-03-23T01:57:40;5.80;99.90
51327;DHT22;37412;52.836;6.362;2024-03-23T02:00:26;5.70;99.90
51327;DHT22;37412;52.836;6.362;2024-03-23T02:03:26;5.70;99.90
51327;DHT22;37412;52.836;6.362;2024-03-23T02:06:12;5.60;99.90
51327;DHT22;37412;52.836;6.362;2024-03-23T02:08:58;5.60;99.90
51327;DHT22;37412;52.836;6.362;2024-03-23T02:11:44;5.60;99.90
51327;DHT22;37412;52.836;6.362;2024-03-23T02:14:30;6.00;99.90
51327;DHT22;37412;52.836;6.362;2024-03-23T02:17:16;5.50;99.90
51327;DHT22;37412;52.836;6.362;2024-03-23T02:20:03;5.70;99.90
51327;DHT22;37412;52.836;6.362;2024-03-23T02:22:53;5.40;99.90
51327;DHT22;37412;52.836;6.362;2024-03-23T02:25:39;5.40;99.90
51327;DHT22;37412;52.836;6.362;2024-03-23T02:28:25;5.30;99.90
51327;DHT22;37412;52.836;6.362;2024-03-23T02:31:11;5.30;99.90
51327;DHT22;37412;52.836;6.362;2024-03-23T02:33:57;6.30;99.90
51327;DHT22;37412;52.836;6.362;2024-03-23T02:36:43;5.30;99.90
51327;DHT22;37412;52.836;6.362;2024-03-23T02:39:29;5.30;99.90
51327;DHT22;37412;52.836;6.362;2024-03-23T02:42:15;5.30;99.90
51327;DHT22;37412;52.836;6.362;2024-03-23T02:45:03;5.30;99.90
51327;DHT22;37412;52.836;6.362;2024-03-23T02:47:50;5.30;99.90
51327;DHT22;37412;52.836;6.362;2024-03-23T02:50:37;5.30;99.90
51327;DHT22;37412;52.836;6.362;2024-03-23T02:53:25;5.30;99.90
51327;DHT22;37412;52.836;6.362;2024-03-23T02:56:11;5.30;99.90
51327;DHT22;37412;52.836;6.362;2024-03-23T02:59:01;5.30;99.90
51327;DHT22;37412;52.836;6.362;2024-03-23T03:01:47;5.30;99.90
51327;DHT22;37412;52.836;6.362;2024-03-23T03:04:33;5.30;99.90
51327;DHT22;37412;52.836;6.362;2024-03-23T03:07:19;5.30;99.90
51327;DHT22;37412;52.836;6.362;2024-03-23T03:10:05;5.30;99.90
51327;DHT22;37412;52.836;6.362;2024-03-23T03:12:52;4.20;99.90
51327;DHT22;37412;52.836;6.362;2024-03-23T03:15:39;6.30;99.90
51327;DHT22;37412;52.836;6.362;2024-03-23T03:18:25;5.20;99.90
51327;DHT22;37412;52.836;6.362;2024-03-23T03:21:11;5.20;99.90
51327;DHT22;37412;52.836;6.362;2024-03-23T03:23:57;5.20;99.90
51327;DHT22;37412;52.836;6.362;2024-03-23T03:26:43;5.10;99.90
51327;DHT22;37412;52.836;6.362;2024-03-23T03:29:29;5.10;99.90
51327;DHT22;37412;52.836;6.362;2024-03-23T03:32:21;5.10;99.90
51327;DHT22;37412;52.836;6.362;2024-03-23T03:35:07;5.70;99.90
51327;DHT22;37412;52.836;6.362;2024-03-23T03:37:53;5.10;99.90
51327;DHT22;37412;52.836;6.362;2024-03-23T03:40:39;5.10;99.90
51327;DHT22;37412;52.836;6.362;2024-03-23T03:43:25;5.10;99.90
51327;DHT22;37412;52.836;6.362;2024-03-23T03:46:11;5.00;99.90
51327;DHT22;37412;52.836;6.362;2024-03-23T03:48:56;5.30;99.90
51327;DHT22;37412;52.836;6.362;2024-03-23T03:51:42;5.00;99.90
51327;DHT22;37412;52.836;6.362;2024-03-23T03:54:28;5.00;99.90
51327;DHT22;37412;52.836;6.362;2024-03-23T03:57:14;4.90;99.90
51327;DHT22;37412;52.836;6.362;2024-03-23T04:00:00;4.90;99.90
51327;DHT22;37412;52.836;6.362;2024-03-23T04:02:46;4.80;99.90
51327;DHT22;37412;52.836;6.362;2024-03-23T04:05:33;4.70;99.90
51327;DHT22;37412;52.836;6.362;2024-03-23T04:08:19;4.60;99.90
51327;DHT22;37412;52.836;6.362;2024-03-23T04:11:05;4.60;99.90
51327;DHT22;37412;52.836;6.362;2024-03-23T04:13:51;4.50;99.90
51327;DHT22;37412;52.836;6.362;2024-03-23T04:16:37;4.50;99.90
51327;DHT22;37412;52.836;6.362;2024-03-23T04:19:23;4.40;99.90
51327;DHT22;37412;52.836;6.362;2024-03-23T04:22:09;4.30;99.90
51327;DHT22;37412;52.836;6.362;2024-03-23T04:24:56;4.30;99.90
51327;DHT22;37412;52.836;6.362;2024-03-23T04:27:42;4.40;99.90
51327;DHT22;37412;52.836;6.362;2024-03-23T04:30:28;4.20;99.90
51327;DHT22;37412;52.836;6.362;2024-03-23T04:33:15;4.20;99.90
51327;DHT22;37412;52.836;6.362;2024-03-23T04:36:01;4.20;99.90
51327;DHT22;37412;52.836;6.362;2024-03-23T04:38:47;4.80;99.90
51327;DHT22;37412;52.836;6.362;2024-03-23T04:41:35;4.20;99.90
51327;DHT22;37412;52.836;6.362;2024-03-23T04:44:21;4.30;99.90
51327;DHT22;37412;52.836;6.362;2024-03-23T04:47:07;4.30;99.90
51327;DHT22;37412;52.836;6.362;2024-03-23T04:49:53;4.40;99.90
51327;DHT22;37412;52.836;6.362;2024-03-23T04:52:40;4.30;99.90
51327;DHT22;37412;52.836;6.362;2024-03-23T04:55:26;4.40;99.90
51327;DHT22;37412;52.836;6.362;2024-03-23T04:58:11;4.40;99.90
51327;DHT22;37412;52.836;6.362;2024-03-23T05:00:57;4.50;99.90
51327;DHT22;37412;52.836;6.362;2024-03-23T05:03:43;4.50;99.90
51327;DHT22;37412;52.836;6.362;2024-03-23T05:06:29;4.50;99.90
51327;DHT22;37412;52.836;6.362;2024-03-23T05:09:16;4.90;99.90
51327;DHT22;37412;52.836;6.362;2024-03-23T05:12:02;4.50;99.90
51327;DHT22;37412;52.836;6.362;2024-03-23T05:14:49;4.50;99.90
51327;DHT22;37412;52.836;6.362;2024-03-23T05:17:35;4.50;99.90
51327;DHT22;37412;52.836;6.362;2024-03-23T05:20:23;4.90;99.90
51327;DHT22;37412;52.836;6.362;2024-03-23T05:23:09;4.60;99.90
51327;DHT22;37412;52.836;6.362;2024-03-23T05:25:55;4.60;99.90
51327;DHT22;37412;52.836;6.362;2024-03-23T05:28:41;4.60;99.90
51327;DHT22;37412;52.836;6.362;2024-03-23T05:31:30;4.60;99.90
51327;DHT22;37412;52.836;6.362;2024-03-23T05:34:16;4.60;99.90
51327;DHT22;37412;52.836;6.362;2024-03-23T05:37:02;4.60;99.90
51327;DHT22;37412;52.836;6.362;2024-03-23T05:39:48;4.60;99.90
51327;DHT22;37412;52.836;6.362;2024-03-23T05:42:35;4.70;99.90
51327;DHT22;37412;52.836;6.362;2024-03-23T05:45:22;4.70;99.90
51327;DHT22;37412;52.836;6.362;2024-03-23T05:48:08;4.70;99.90
51327;DHT22;37412;52.836;6.362;2024-03-23T05:50:54;4.80;99.90
51327;DHT22;37412;52.836;6.362;2024-03-23T05:53:40;4.80;99.90
51327;DHT22;37412;52.836;6.362;2024-03-23T05:56:26;4.90;99.90
51327;DHT22;37412;52.836;6.362;2024-03-23T05:59:12;5.10;99.90
51327;DHT22;37412;52.836;6.362;2024-03-23T06:01:58;5.10;99.90
51327;DHT22;37412;52.836;6.362;2024-03-23T06:04:45;5.10;99.90
51327;DHT22;37412;52.836;6.362;2024-03-23T06:07:31;5.20;99.90
51327;DHT22;37412;52.836;6.362;2024-03-23T06:10:17;5.30;99.90
51327;DHT22;37412;52.836;6.362;2024-03-23T06:13:03;5.30;99.90
51327;DHT22;37412;52.836;6.362;2024-03-23T06:15:49;5.40;99.90
51327;DHT22;37412;52.836;6.362;2024-03-23T06:18:35;5.50;99.90
51327;DHT22;37412;52.836;6.362;2024-03-23T06:21:21;5.80;99.90
51327;DHT22;37412;52.836;6.362;2024-03-23T06:24:10;5.50;99.90
51327;DHT22;37412;52.836;6.362;2024-03-23T06:26:56;5.50;99.90
51327;DHT22;37412;52.836;6.362;2024-03-23T06:29:42;5.50;99.90
51327;DHT22;37412;52.836;6.362;2024-03-23T06:32:28;5.40;99.90
51327;DHT22;37412;52.836;6.362;2024-03-23T06:35:17;5.40;99.90
51327;DHT22;37412;52.836;6.362;2024-03-23T06:38:03;5.40;99.90
51327;DHT22;37412;52.836;6.362;2024-03-23T06:40:49;5.40;99.90
51327;DHT22;37412;52.836;6.362;2024-03-23T06:43:36;5.40;99.90
51327;DHT22;37412;52.836;6.362;2024-03-23T06:46:22;5.30;99.90
51327;DHT22;37412;52.836;6.362;2024-03-23T06:49:08;5.40;99.90
51327;DHT22;37412;52.836;6.362;2024-03-23T06:51:54;5.40;99.90
51327;DHT22;37412;52.836;6.362;2024-03-23T06:54:40;5.60;99.90
51327;DHT22;37412;52.836;6.362;2024-03-23T06:57:26;5.50;99.90
51327;DHT22;37412;52.836;6.362;2024-03-23T07:00:12;5.50;99.90
51327;DHT22;37412;52.836;6.362;2024-03-23T07:03:00;5.60;99.90
51327;DHT22;37412;52.836;6.362;2024-03-23T07:05:46;5.70;99.90
51327;DHT22;37412;52.836;6.362;2024-03-23T07:08:32;5.70;99.90
51327;DHT22;37412;52.836;6.362;2024-03-23T07:11:21;5.80;99.90
51327;DHT22;37412;52.836;6.362;2024-03-23T07:14:07;5.80;99.90
51327;DHT22;37412;52.836;6.362;2024-03-23T07:16:53;6.00;99.90
51327;DHT22;37412;52.836;6.362;2024-03-23T07:19:39;6.30;99.90
51327;DHT22;37412;52.836;6.362;2024-03-23T07:22:25;7.80;99.90
51327;DHT22;37412;52.836;6.362;2024-03-23T07:25:12;7.60;99.90
51327;DHT22;37412;52.836;6.362;2024-03-23T07:28:01;8.20;99.90
51327;DHT22;37412;52.836;6.362;2024-03-23T07:30:47;7.60;99.90
51327;DHT22;37412;52.836;6.362;2024-03-23T07:33:33;7.30;99.90
51327;DHT22;37412;52.836;6.362;2024-03-23T07:36:19;7.20;99.90
51327;DHT22;37412;52.836;6.362;2024-03-23T07:39:05;7.00;99.90
51327;DHT22;37412;52.836;6.362;2024-03-23T07:41:51;7.00;99.90
51327;DHT22;37412;52.836;6.362;2024-03-23T07:44:37;6.80;99.90
51327;DHT22;37412;52.836;6.362;2024-03-23T07:47:23;6.50;99.90
51327;DHT22;37412;52.836;6.362;2024-03-23T07:50:09;6.40;99.90
51327;DHT22;37412;52.836;6.362;2024-03-23T07:52:55;6.40;99.90
51327;DHT22;37412;52.836;6.362;2024-03-23T07:55:41;6.40;99.90
51327;DHT22;37412;52.836;6.362;2024-03-23T07:58:28;6.50;99.90
51327;DHT22;37412;52.836;6.362;2024-03-23T08:01:15;6.40;99.90
51327;DHT22;37412;52.836;6.362;2024-03-23T08:04:02;6.50;99.90
51327;DHT22;37412;52.836;6.362;2024-03-23T08:06:47;6.50;99.90
51327;DHT22;37412;52.836;6.362;2024-03-23T08:09:34;6.70;99.90
51327;DHT22;37412;52.836;6.362;2024-03-23T08:12:20;7.10;99.90
51327;DHT22;37412;52.836;6.362;2024-03-23T08:15:06;8.50;99.90
51327;DHT22;37412;52.836;6.362;2024-03-23T08:17:52;10.20;99.90
51327;DHT22;37412;52.836;6.362;2024-03-23T08:20:38;10.60;99.90
51327;DHT22;37412;52.836;6.362;2024-03-23T08:23:25;11.10;99.90
51327;DHT22;37412;52.836;6.362;2024-03-23T08:26:13;11.00;99.90
51327;DHT22;37412;52.836;6.362;2024-03-23T08:28:59;11.00;99.90
51327;DHT22;37412;52.836;6.362;2024-03-23T08:31:45;12.10;99.90
51327;DHT22;37412;52.836;6.362;2024-03-23T08:34:30;13.00;99.90
51327;DHT22;37412;52.836;6.362;2024-03-23T08:37:16;14.20;99.90
51327;DHT22;37412;52.836;6.362;2024-03-23T08:40:03;15.20;99.90
51327;DHT22;37412;52.836;6.362;2024-03-23T08:42:50;14.80;99.90
51327;DHT22;37412;52.836;6.362;2024-03-23T08:45:36;14.80;99.90
51327;DHT22;37412;52.836;6.362;2024-03-23T08:48:22;14.90;99.90
51327;DHT22;37412;52.836;6.362;2024-03-23T08:51:08;15.30;99.90
51327;DHT22;37412;52.836;6.362;2024-03-23T08:53:54;15.60;99.90
51327;DHT22;37412;52.836;6.362;2024-03-23T08:56:40;15.30;99.90
51327;DHT22;37412;52.836;6.362;2024-03-23T08:59:27;14.90;99.90
51327;DHT22;37412;52.836;6.362;2024-03-23T09:02:12;13.70;99.90
51327;DHT22;37412;52.836;6.362;2024-03-23T09:04:58;12.20;99.90
51327;DHT22;37412;52.836;6.362;2024-03-23T09:07:49;11.20;99.90
51327;DHT22;37412;52.836;6.362;2024-03-23T09:10:38;10.30;99.90
51327;DHT22;37412;52.836;6.362;2024-03-23T09:13:25;9.80;99.90
51327;DHT22;37412;52.836;6.362;2024-03-23T09:16:11;8.90;99.90
51327;DHT22;37412;52.836;6.362;2024-03-23T09:18:57;8.80;99.90
51327;DHT22;37412;52.836;6.362;2024-03-23T09:21:43;8.60;99.90
51327;DHT22;37412;52.836;6.362;2024-03-23T09:24:29;8.80;99.90
51327;DHT22;37412;52.836;6.362;2024-03-23T09:27:14;10.90;99.90
51327;DHT22;37412;52.836;6.362;2024-03-23T09:30:00;12.80;99.90
51327;DHT22;37412;52.836;6.362;2024-03-23T09:32:46;14.30;99.90
51327;DHT22;37412;52.836;6.362;2024-03-23T09:35:32;15.50;99.90
51327;DHT22;37412;52.836;6.362;2024-03-23T09:38:22;16.30;99.90
51327;DHT22;37412;52.836;6.362;2024-03-23T09:41:09;16.10;99.90
51327;DHT22;37412;52.836;6.362;2024-03-23T09:43:55;15.20;99.90
51327;DHT22;37412;52.836;6.362;2024-03-23T09:46:41;14.30;99.90
51327;DHT22;37412;52.836;6.362;2024-03-23T09:49:27;13.50;99.90
51327;DHT22;37412;52.836;6.362;2024-03-23T09:52:13;12.90;99.90
51327;DHT22;37412;52.836;6.362;2024-03-23T09:54:59;12.30;99.90
51327;DHT22;37412;52.836;6.362;2024-03-23T09:57:45;11.50;99.90
51327;DHT22;37412;52.836;6.362;2024-03-23T10:00:35;11.10;99.90
51327;DHT22;37412;52.836;6.362;2024-03-23T10:03:21;11.10;99.90
51327;DHT22;37412;52.836;6.362;2024-03-23T10:06:07;11.30;99.90
51327;DHT22;37412;52.836;6.362;2024-03-23T10:08:53;10.80;99.90
51327;DHT22;37412;52.836;6.362;2024-03-23T10:11:40;10.10;99.90
51327;DHT22;37412;52.836;6.362;2024-03-23T10:14:29;9.90;99.90
51327;DHT22;37412;52.836;6.362;2024-03-23T10:17:18;9.00;99.90
51327;DHT22;37412;52.836;6.362;2024-03-23T10:20:09;9.30;99.90
51327;DHT22;37412;52.836;6.362;2024-03-23T10:22:56;10.10;99.90
51327;DHT22;37412;52.836;6.362;2024-03-23T10:25:42;11.00;99.90
51327;DHT22;37412;52.836;6.362;2024-03-23T10:28:28;11.60;99.90
51327;DHT22;37412;52.836;6.362;2024-03-23T10:31:14;11.80;99.90
51327;DHT22;37412;52.836;6.362;2024-03-23T10:34:03;12.00;99.90
51327;DHT22;37412;52.836;6.362;2024-03-23T10:36:50;12.70;99.90
51327;DHT22;37412;52.836;6.362;2024-03-23T10:39:39;13.40;99.90
51327;DHT22;37412;52.836;6.362;2024-03-23T10:42:25;13.00;99.90
51327;DHT22;37412;52.836;6.362;2024-03-23T10:45:11;12.50;99.90
51327;DHT22;37412;52.836;6.362;2024-03-23T10:47:57;11.80;99.90
51327;DHT22;37412;52.836;6.362;2024-03-23T10:50:43;11.30;99.90
51327;DHT22;37412;52.836;6.362;2024-03-23T10:53:29;10.80;99.90
51327;DHT22;37412;52.836;6.362;2024-03-23T10:56:18;10.30;99.90
51327;DHT22;37412;52.836;6.362;2024-03-23T10:59:05;9.80;99.90
51327;DHT22;37412;52.836;6.362;2024-03-23T11:01:56;9.00;99.90
51327;DHT22;37412;52.836;6.362;2024-03-23T11:04:42;8.60;99.90
51327;DHT22;37412;52.836;6.362;2024-03-23T11:07:32;8.20;99.90
51327;DHT22;37412;52.836;6.362;2024-03-23T11:10:30;7.90;99.90
51327;DHT22;37412;52.836;6.362;2024-03-23T11:13:21;7.70;99.90
51327;DHT22;37412;52.836;6.362;2024-03-23T11:19:34;7.60;99.90
51327;DHT22;37412;52.836;6.362;2024-03-23T11:22:12;7.60;99.90
51327;DHT22;37412;52.836;6.362;2024-03-23T11:24:58;7.50;99.90
51327;DHT22;37412;52.836;6.362;2024-03-23T11:27:45;7.50;99.90
51327;DHT22;37412;52.836;6.362;2024-03-23T11:30:34;7.50;99.90
51327;DHT22;37412;52.836;6.362;2024-03-23T11:33:20;7.60;99.90
51327;DHT22;37412;52.836;6.362;2024-03-23T11:36:07;7.90;99.90
51327;DHT22;37412;52.836;6.362;2024-03-23T11:38:53;8.00;99.90
51327;DHT22;37412;52.836;6.362;2024-03-23T11:41:59;8.10;99.90
51327;DHT22;37412;52.836;6.362;2024-03-23T11:44:45;8.20;99.90
51327;DHT22;37412;52.836;6.362;2024-03-23T11:47:32;8.50;99.90
51327;DHT22;37412;52.836;6.362;2024-03-23T11:50:22;9.00;99.90
51327;DHT22;37412;52.836;6.362;2024-03-23T11:56:00;9.70;99.90
51327;DHT22;37412;52.836;6.362;2024-03-23T11:58:49;10.00;99.90
51327;DHT22;37412;52.836;6.362;2024-03-23T12:01:37;10.60;99.90
51327;DHT22;37412;52.836;6.362;2024-03-23T12:04:29;11.30;99.90
51327;DHT22;37412;52.836;6.362;2024-03-23T12:07:20;11.50;99.90
51327;DHT22;37412;52.836;6.362;2024-03-23T12:10:07;11.40;99.90
51327;DHT22;37412;52.836;6.362;2024-03-23T12:13:03;10.80;99.90
51327;DHT22;37412;52.836;6.362;2024-03-23T12:15:52;10.30;99.90
51327;DHT22;37412;52.836;6.362;2024-03-23T12:18:39;10.00;99.90
51327;DHT22;37412;52.836;6.362;2024-03-23T12:21:25;9.70;99.90
51327;DHT22;37412;52.836;6.362;2024-03-23T12:24:11;9.60;99.90
51327;DHT22;37412;52.836;6.362;2024-03-23T12:27:05;9.60;99.90
51327;DHT22;37412;52.836;6.362;2024-03-23T12:29:51;10.00;99.90
51327;DHT22;37412;52.836;6.362;2024-03-23T12:32:37;10.60;99.90
51327;DHT22;37412;52.836;6.362;2024-03-23T12:35:23;11.20;99.90
51327;DHT22;37412;52.836;6.362;2024-03-23T12:38:09;11.40;99.90
51327;DHT22;37412;52.836;6.362;2024-03-23T12:40:55;11.00;99.90
51327;DHT22;37412;52.836;6.362;2024-03-23T12:43:41;10.70;99.90
51327;DHT22;37412;52.836;6.362;2024-03-23T12:46:26;10.50;99.90
51327;DHT22;37412;52.836;6.362;2024-03-23T12:49:13;10.70;99.90
51327;DHT22;37412;52.836;6.362;2024-03-23T12:51:59;10.60;99.90
51327;DHT22;37412;52.836;6.362;2024-03-23T12:54:45;10.40;99.90
51327;DHT22;37412;52.836;6.362;2024-03-23T12:57:32;10.00;99.90
51327;DHT22;37412;52.836;6.362;2024-03-23T13:00:18;9.80;99.90
51327;DHT22;37412;52.836;6.362;2024-03-23T13:03:04;9.30;99.90
51327;DHT22;37412;52.836;6.362;2024-03-23T13:05:53;10.00;99.90
51327;DHT22;37412;52.836;6.362;2024-03-23T13:08:39;10.90;99.90
51327;DHT22;37412;52.836;6.362;2024-03-23T13:11:29;10.40;99.90
51327;DHT22;37412;52.836;6.362;2024-03-23T13:14:15;10.30;99.90
51327;DHT22;37412;52.836;6.362;2024-03-23T13:17:02;10.60;99.90
51327;DHT22;37412;52.836;6.362;2024-03-23T13:19:49;10.00;99.90
51327;DHT22;37412;52.836;6.362;2024-03-23T13:22:36;10.00;99.90
51327;DHT22;37412;52.836;6.362;2024-03-23T13:25:22;10.00;99.90
51327;DHT22;37412;52.836;6.362;2024-03-23T13:28:08;10.10;99.90
51327;DHT22;37412;52.836;6.362;2024-03-23T13:30:56;10.20;99.90
51327;DHT22;37412;52.836;6.362;2024-03-23T13:33:43;10.40;99.90
51327;DHT22;37412;52.836;6.362;2024-03-23T13:36:29;10.50;99.90
51327;DHT22;37412;52.836;6.362;2024-03-23T13:39:15;10.60;99.90
51327;DHT22;37412;52.836;6.362;2024-03-23T13:42:01;10.60;99.90
51327;DHT22;37412;52.836;6.362;2024-03-23T13:44:49;10.80;99.90
51327;DHT22;37412;52.836;6.362;2024-03-23T13:47:35;11.10;99.90
51327;DHT22;37412;52.836;6.362;2024-03-23T13:50:21;11.40;99.90
51327;DHT22;37412;52.836;6.362;2024-03-23T13:53:07;11.40;99.90
51327;DHT22;37412;52.836;6.362;2024-03-23T13:55:54;10.90;99.90
51327;DHT22;37412;52.836;6.362;2024-03-23T13:58:40;11.10;99.90
51327;DHT22;37412;52.836;6.362;2024-03-23T14:01:32;10.60;99.90
51327;DHT22;37412;52.836;6.362;2024-03-23T14:04:18;10.70;99.90
51327;DHT22;37412;52.836;6.362;2024-03-23T14:07:08;10.70;99.90
51327;DHT22;37412;52.836;6.362;2024-03-23T14:09:54;10.70;99.90
51327;DHT22;37412;52.836;6.362;2024-03-23T14:12:41;10.40;99.90
51327;DHT22;37412;52.836;6.362;2024-03-23T14:15:30;10.40;99.90
51327;DHT22;37412;52.836;6.362;2024-03-23T14:18:16;10.10;99.90
51327;DHT22;37412;52.836;6.362;2024-03-23T14:21:02;9.80;99.90
51327;DHT22;37412;52.836;6.362;2024-03-23T14:23:48;9.60;99.90
51327;DHT22;37412;52.836;6.362;2024-03-23T14:26:37;9.30;99.90
51327;DHT22;37412;52.836;6.362;2024-03-23T14:29:24;9.20;99.90
51327;DHT22;37412;52.836;6.362;2024-03-23T14:32:10;8.60;99.90
51327;DHT22;37412;52.836;6.362;2024-03-23T14:34:56;8.20;99.90
51327;DHT22;37412;52.836;6.362;2024-03-23T14:37:42;8.20;99.90
51327;DHT22;37412;52.836;6.362;2024-03-23T14:40:29;8.40;99.90
51327;DHT22;37412;52.836;6.362;2024-03-23T14:43:16;8.80;99.90
51327;DHT22;37412;52.836;6.362;2024-03-23T14:48:53;9.50;99.90
51327;DHT22;37412;52.836;6.362;2024-03-23T14:51:40;9.70;99.90
51327;DHT22;37412;52.836;6.362;2024-03-23T14:54:26;9.80;99.90
51327;DHT22;37412;52.836;6.362;2024-03-23T14:57:12;9.70;99.90
51327;DHT22;37412;52.836;6.362;2024-03-23T14:59:58;9.60;99.90
51327;DHT22;37412;52.836;6.362;2024-03-23T15:02:44;9.90;99.90
51327;DHT22;37412;52.836;6.362;2024-03-23T15:05:31;9.40;99.90
51327;DHT22;37412;52.836;6.362;2024-03-23T15:08:17;9.30;99.90
51327;DHT22;37412;52.836;6.362;2024-03-23T15:11:03;9.20;99.90
51327;DHT22;37412;52.836;6.362;2024-03-23T15:13:51;9.20;99.90
51327;DHT22;37412;52.836;6.362;2024-03-23T15:16:38;9.30;99.90
51327;DHT22;37412;52.836;6.362;2024-03-23T15:19:24;9.90;99.90
51327;DHT22;37412;52.836;6.362;2024-03-23T15:22:09;9.50;99.90
51327;DHT22;37412;52.836;6.362;2024-03-23T15:24:56;9.30;99.90
51327;DHT22;37412;52.836;6.362;2024-03-23T15:27:42;9.60;99.90
51327;DHT22;37412;52.836;6.362;2024-03-23T15:30:28;9.00;99.90
51327;DHT22;37412;52.836;6.362;2024-03-23T15:33:14;9.00;99.90
51327;DHT22;37412;52.836;6.362;2024-03-23T15:36:01;8.60;99.90
51327;DHT22;37412;52.836;6.362;2024-03-23T15:38:47;8.40;99.90
51327;DHT22;37412;52.836;6.362;2024-03-23T15:41:34;8.80;99.90
51327;DHT22;37412;52.836;6.362;2024-03-23T15:44:21;8.20;99.90
51327;DHT22;37412;52.836;6.362;2024-03-23T15:47:10;8.10;99.90
51327;DHT22;37412;52.836;6.362;2024-03-23T15:49:59;8.10;99.90
51327;DHT22;37412;52.836;6.362;2024-03-23T15:52:45;8.00;99.90
51327;DHT22;37412;52.836;6.362;2024-03-23T15:55:31;8.00;99.90
51327;DHT22;37412;52.836;6.362;2024-03-23T15:58:22;8.20;99.90
51327;DHT22;37412;52.836;6.362;2024-03-23T16:01:08;8.30;99.90
51327;DHT22;37412;52.836;6.362;2024-03-23T16:03:56;8.30;99.90
51327;DHT22;37412;52.836;6.362;2024-03-23T16:06:42;8.40;99.90
51327;DHT22;37412;52.836;6.362;2024-03-23T16:09:30;8.00;99.90
51327;DHT22;37412;52.836;6.362;2024-03-23T16:12:16;7.80;99.90
51327;DHT22;37412;52.836;6.362;2024-03-23T16:15:03;8.10;99.90
51327;DHT22;37412;52.836;6.362;2024-03-23T16:17:49;7.70;99.90
51327;DHT22;37412;52.836;6.362;2024-03-23T16:20:35;7.60;99.90
51327;DHT22;37412;52.836;6.362;2024-03-23T16:23:21;7.70;99.90
51327;DHT22;37412;52.836;6.362;2024-03-23T16:26:07;7.70;99.90
51327;DHT22;37412;52.836;6.362;2024-03-23T16:28:53;7.70;99.90
51327;DHT22;37412;52.836;6.362;2024-03-23T16:31:42;7.60;99.90
51327;DHT22;37412;52.836;6.362;2024-03-23T16:34:28;7.50;99.90
51327;DHT22;37412;52.836;6.362;2024-03-23T16:37:14;7.40;99.90
51327;DHT22;37412;52.836;6.362;2024-03-23T16:40:00;7.40;99.90
51327;DHT22;37412;52.836;6.362;2024-03-23T16:42:46;7.30;99.90
51327;DHT22;37412;52.836;6.362;2024-03-23T16:45:32;8.10;99.90
51327;DHT22;37412;52.836;6.362;2024-03-23T16:48:18;7.40;99.90
51327;DHT22;37412;52.836;6.362;2024-03-23T16:51:04;7.40;99.90
51327;DHT22;37412;52.836;6.362;2024-03-23T16:53:50;7.40;99.90
51327;DHT22;37412;52.836;6.362;2024-03-23T16:56:36;8.10;99.90
51327;DHT22;37412;52.836;6.362;2024-03-23T16:59:22;7.20;99.90
51327;DHT22;37412;52.836;6.362;2024-03-23T17:02:08;7.50;99.90
51327;DHT22;37412;52.836;6.362;2024-03-23T17:04:55;7.10;99.90
51327;DHT22;37412;52.836;6.362;2024-03-23T17:07:44;7.40;99.90
51327;DHT22;37412;52.836;6.362;2024-03-23T17:10:33;7.00;99.90
51327;DHT22;37412;52.836;6.362;2024-03-23T17:13:19;7.00;99.90
51327;DHT22;37412;52.836;6.362;2024-03-23T17:16:05;6.90;99.90
51327;DHT22;37412;52.836;6.362;2024-03-23T17:18:51;6.90;99.90
51327;DHT22;37412;52.836;6.362;2024-03-23T17:21:38;7.00;99.90
51327;DHT22;37412;52.836;6.362;2024-03-23T17:24:26;6.90;99.90
51327;DHT22;37412;52.836;6.362;2024-03-23T17:27:11;6.80;99.90
51327;DHT22;37412;52.836;6.362;2024-03-23T17:29:58;6.80;99.90
51327;DHT22;37412;52.836;6.362;2024-03-23T17:32:44;6.70;99.90
51327;DHT22;37412;52.836;6.362;2024-03-23T17:35:30;6.50;99.90
51327;DHT22;37412;52.836;6.362;2024-03-23T17:38:16;6.50;99.90
51327;DHT22;37412;52.836;6.362;2024-03-23T17:41:05;5.90;99.90
51327;DHT22;37412;52.836;6.362;2024-03-23T17:43:50;7.50;99.90
51327;DHT22;37412;52.836;6.362;2024-03-23T17:46:36;6.30;99.90
51327;DHT22;37412;52.836;6.362;2024-03-23T17:49:22;6.10;99.90
51327;DHT22;37412;52.836;6.362;2024-03-23T17:52:10;6.00;99.90
51327;DHT22;37412;52.836;6.362;2024-03-23T17:54:58;5.90;99.90
51327;DHT22;37412;52.836;6.362;2024-03-23T17:57:45;7.50;99.90
51327;DHT22;37412;52.836;6.362;2024-03-23T18:00:31;5.80;99.90
51327;DHT22;37412;52.836;6.362;2024-03-23T18:03:17;5.70;99.90
51327;DHT22;37412;52.836;6.362;2024-03-23T18:06:03;6.10;99.90
51327;DHT22;37412;52.836;6.362;2024-03-23T18:08:49;5.60;99.90
51327;DHT22;37412;52.836;6.362;2024-03-23T18:11:35;6.50;99.90
51327;DHT22;37412;52.836;6.362;2024-03-23T18:14:24;5.70;99.90
51327;DHT22;37412;52.836;6.362;2024-03-23T18:17:10;5.50;99.90
51327;DHT22;37412;52.836;6.362;2024-03-23T18:19:56;5.50;99.90
51327;DHT22;37412;52.836;6.362;2024-03-23T18:22:42;5.40;99.90
51327;DHT22;37412;52.836;6.362;2024-03-23T18:25:30;5.40;99.90
51327;DHT22;37412;52.836;6.362;2024-03-23T18:28:16;5.40;99.90
51327;DHT22;37412;52.836;6.362;2024-03-23T18:31:02;5.50;99.90
51327;DHT22;37412;52.836;6.362;2024-03-23T18:33:48;5.40;99.90
51327;DHT22;37412;52.836;6.362;2024-03-23T18:36:34;5.50;99.90
51327;DHT22;37412;52.836;6.362;2024-03-23T18:39:20;5.50;99.90
51327;DHT22;37412;52.836;6.362;2024-03-23T18:42:06;5.50;99.90
51327;DHT22;37412;52.836;6.362;2024-03-23T18:44:52;5.50;99.90
51327;DHT22;37412;52.836;6.362;2024-03-23T18:47:37;5.50;99.90